KRDG/RDG METAR and TAF weather

Enter ICAO airport designator
Station Type Date Time Source
KRDG METAR 2022/01/19 19:54 UTC NOAA

KRDG 191954Z 20008KT 10SM FEW050 08/M03 A2995 RMK AO2 SLP149 T00831028


Station Type Date Time Source
KRDG Decoded METAR 2022/01/19 19:54 UTC NOAA

READING REGIONAL AIRPORT, PA, United States (KRDG) 40-22N 075-58W 109M
Jan 19, 2022 - 02:54 PM EST / 2022.01.19 1954 UTC
Wind: from the SSW (200 degrees) at 9 MPH (8 KT):0
Visibility: 10 mile(s):0
Sky conditions: mostly clear
Temperature: 46.9 F (8.3 C)
Dew Point: 27.0 F (-2.8 C)
Relative Humidity: 45%
Pressure (altimeter): 29.95 in. Hg (1014 hPa)
ob: KRDG 191954Z 20008KT 10SM FEW050 08/M03 A2995 RMK AO2 SLP149 T00831028
cycle: 20

Station Type Date Time Source
KRDG TAF 2022/01/19 18:24 UTC NOAA

TAF KRDG 191723Z 1918/2018 21010G18KT P6SM BKN200
FM200000 23005KT P6SM OVC045
FM200700 VRB03KT 6SM -RA BR OVC025
FM200900 31005KT 3SM -SNRA BR OVC015
FM201000 34008KT 2SM -SN BR OVC020
FM201400 34010G18KT 6SM -SN BR OVC045
FM201700 33012G20KT P6SM BKN150

Example: see airport list